Time;durP1;ratioP1;P1;durP2;ratioP2;P2;SDS_P1;SDS_P2;PMS_P1;PMS_P2;Temp;Humidity;BMP_temperature;BMP_pressure;BME280_temperature;BME280_humidity;BME280_pressure;Samples;Min_cycle;Max_cycle;Signal;HPM_P1;HPM_P2
2024/01/31 00:02:01;;;;;;;3.55;3.00;;;9.10;99.90;;;9.21;94.10;102238.63;5053954;28;20218;-62
2024/01/31 00:04:40;;;;;;;9.02;3.33;;;9.10;99.90;;;9.26;93.46;102241.69;5072030;28;20207;-63
2024/01/31 00:07:15;;;;;;;5.43;4.10;;;9.10;99.90;;;9.25;92.92;102235.44;5056469;28;20665;-62
2024/01/31 00:09:50;;;;;;;3.83;2.47;;;9.20;99.90;;;9.22;93.12;102234.91;5067072;28;20199;-64
2024/01/31 00:12:28;;;;;;;3.13;2.65;;;9.10;99.90;;;9.25;93.00;102245.38;5068008;28;20235;-62
2024/01/31 00:15:05;;;;;;;2.80;2.60;;;9.10;99.90;;;9.20;93.12;102239.66;5055514;28;20188;-61
2024/01/31 00:17:41;;;;;;;4.35;3.25;;;9.10;99.90;;;9.29;92.20;102244.09;5059568;28;20222;-63
2024/01/31 00:20:18;;;;;;;4.03;2.53;;;9.10;99.90;;;9.26;92.49;102237.13;5064226;28;20200;-64
2024/01/31 00:22:56;;;;;;;7.03;4.13;;;9.20;99.90;;;9.19;92.18;102238.78;5077828;28;20264;-63
2024/01/31 00:25:30;;;;;;;7.85;2.95;;;9.10;99.90;;;9.26;91.58;102231.72;5057579;28;20262;-63
2024/01/31 00:28:06;;;;;;;6.25;3.35;;;9.10;99.90;;;9.24;91.70;102238.31;5073401;28;20262;-62
2024/01/31 00:30:42;;;;;;;5.15;3.30;;;9.10;99.90;;;9.21;91.66;102238.63;5062589;28;20184;-64
2024/01/31 00:33:18;;;;;;;2.17;1.98;;;9.10;99.90;;;9.22;91.52;102241.16;5057326;28;20587;-62
2024/01/31 00:35:53;;;;;;;4.65;2.80;;;9.10;99.90;;;9.07;91.92;102242.75;5075587;28;20258;-58
2024/01/31 00:38:33;;;;;;;4.25;2.95;;;9.00;99.90;;;9.11;92.37;102236.88;5060566;28;20227;-62
2024/01/31 00:41:09;;;;;;;3.55;3.28;;;9.00;99.90;;;9.02;92.49;102235.16;5077684;28;20265;-62
2024/01/31 00:43:45;;;;;;;9.07;4.03;;;8.90;99.90;;;9.15;91.84;102243.66;5057682;28;20187;-64
2024/01/31 00:46:18;;;;;;;4.43;2.97;;;9.00;99.90;;;9.10;91.94;102237.88;5066966;28;20204;-64
2024/01/31 00:48:53;;;;;;;6.53;3.08;;;9.00;99.90;;;9.18;91.68;102234.41;5063918;28;20261;-64
2024/01/31 00:51:35;;;;;;;3.30;1.92;;;9.10;99.90;;;9.23;91.07;102240.16;5074125;28;20552;-62
2024/01/31 00:54:09;;;;;;;3.85;2.25;;;9.10;99.90;;;9.20;90.64;102237.75;5066633;28;20216;-62
2024/01/31 00:56:43;;;;;;;13.00;4.07;;;9.10;99.90;;;9.13;90.95;102237.59;5072024;28;20191;-64
2024/01/31 00:59:20;;;;;;;5.05;2.97;;;9.10;99.90;;;9.14;90.70;102233.03;5074236;28;20207;-60
2024/01/31 01:01:54;;;;;;;2.25;1.88;;;9.10;99.90;;;9.14;90.64;102238.44;5066220;28;20658;-61
2024/01/31 01:04:35;;;;;;;3.30;3.00;;;9.00;99.90;;;9.16;89.99;102234.53;5054464;28;20188;-59
2024/01/31 01:07:09;;;;;;;4.70;3.08;;;9.00;99.90;;;9.16;89.99;102231.84;5080286;28;20218;-61
2024/01/31 01:09:45;;;;;;;2.95;2.17;;;9.00;99.90;;;9.18;88.86;102230.84;5072589;28;20184;-63
2024/01/31 01:12:20;;;;;;;3.28;1.83;;;9.10;99.90;;;9.12;88.57;102225.06;5040235;28;20192;-60
2024/01/31 01:14:54;;;;;;;2.75;1.45;;;9.00;99.90;;;9.25;88.43;102229.19;5066957;28;20759;-55
2024/01/31 01:17:45;;;;;;;3.20;2.05;;;9.10;99.90;;;9.21;87.89;102233.22;5055792;28;20208;-61
2024/01/31 01:20:21;;;;;;;2.05;1.30;;;9.10;99.90;;;9.20;88.24;102239.66;5070712;28;20191;-65
2024/01/31 01:22:56;;;;;;;5.28;1.95;;;9.10;99.90;;;9.10;88.01;102234.38;5057256;28;20291;-63
2024/01/31 01:25:33;;;;;;;2.60;1.50;;;9.00;99.90;;;9.08;88.52;102239.06;5073822;28;20258;-65
2024/01/31 01:28:07;;;;;;;1.30;1.13;;;9.00;99.90;;;9.11;88.11;102239.59;5073059;28;20480;-62
2024/01/31 01:30:48;;;;;;;1.35;1.25;;;9.00;99.90;;;9.10;88.10;102237.06;5060357;28;20555;-67
2024/01/31 01:33:21;;;;;;;3.13;2.15;;;9.00;99.90;;;9.03;88.58;102236.00;5060792;28;20693;-64
2024/01/31 01:35:56;;;;;;;2.17;1.58;;;8.90;99.90;;;9.21;87.54;102234.06;5069448;28;20206;-66
2024/01/31 01:38:32;;;;;;;2.58;2.17;;;9.00;99.90;;;9.14;87.68;102241.13;5080814;28;20245;-67
2024/01/31 01:41:07;;;;;;;1.90;1.55;;;9.00;99.90;;;9.04;88.03;102230.44;5057303;28;20199;-65
2024/01/31 01:43:43;;;;;;;3.38;1.67;;;9.00;99.90;;;9.13;87.55;102226.78;5058241;28;20210;-65
2024/01/31 01:46:25;;;;;;;3.08;1.85;;;9.00;99.90;;;9.14;87.45;102227.63;5078194;28;20215;-64
2024/01/31 01:49:01;;;;;;;1.10;0.73;;;9.00;99.90;;;9.13;87.37;102221.38;5079391;28;20493;-60
2024/01/31 01:51:44;;;;;;;1.95;1.23;;;9.00;99.90;;;9.16;86.89;102226.44;5074974;28;20230;-64
2024/01/31 01:54:21;;;;;;;2.80;1.60;;;9.10;99.90;;;9.10;86.14;102232.47;5056763;28;20200;-62
2024/01/31 01:57:01;;;;;;;7.00;1.60;;;9.10;99.90;;;9.13;86.56;102231.34;5074317;28;20199;-62
2024/01/31 01:59:39;;;;;;;2.42;1.55;;;9.00;99.90;;;9.04;86.58;102238.53;5075551;28;20196;-58
2024/01/31 02:02:17;;;;;;;2.50;1.85;;;9.00;99.90;;;9.04;87.44;102238.53;5058506;28;20287;-63
2024/01/31 02:04:51;;;;;;;2.25;1.70;;;9.00;99.90;;;9.08;87.58;102244.47;5059862;28;20295;-63
2024/01/31 02:07:33;;;;;;;7.05;2.67;;;8.90;99.90;;;9.12;87.77;102237.72;5077795;28;20227;-64
2024/01/31 02:10:10;;;;;;;3.08;1.65;;;9.00;99.90;;;9.07;87.95;102243.63;5044603;28;20299;-62
2024/01/31 02:12:45;;;;;;;1.75;1.40;;;9.00;99.90;;;9.05;88.38;102244.78;5056630;28;20610;-63
2024/01/31 02:15:21;;;;;;;2.65;1.85;;;9.00;99.90;;;8.96;88.68;102246.56;5056030;28;20562;-59
2024/01/31 02:17:55;;;;;;;1.85;1.55;;;8.90;99.90;;;8.96;89.00;102245.72;5069774;28;20204;-62
2024/01/31 02:20:37;;;;;;;2.00;1.00;;;8.90;99.90;;;8.93;89.55;102248.75;5053792;28;20254;-63
2024/01/31 02:23:18;;;;;;;0.93;0.82;;;8.80;99.90;;;8.87;90.24;102252.94;5050900;28;20193;-62
2024/01/31 02:25:53;;;;;;;2.67;0.98;;;8.80;99.90;;;8.79;90.73;102260.97;5055007;28;20250;-61
2024/01/31 02:28:27;;;;;;;2.45;1.42;;;8.70;99.90;;;8.78;91.12;102253.88;5052441;28;20221;-64
2024/01/31 02:31:01;;;;;;;3.28;1.70;;;8.70;99.90;;;8.78;91.71;102245.78;5066625;28;20234;-62
2024/01/31 02:33:35;;;;;;;1.42;1.10;;;8.70;99.90;;;8.81;91.99;102245.44;5075743;28;20196;-64
2024/01/31 02:36:11;;;;;;;1.42;1.08;;;8.70;99.90;;;8.70;93.02;102262.78;5074106;28;20609;-64
2024/01/31 02:38:49;;;;;;;2.45;1.20;;;8.70;99.90;;;8.70;93.90;102251.13;5052875;28;20310;-64
2024/01/31 02:41:28;;;;;;;1.52;0.73;;;8.60;99.90;;;8.65;93.92;102256.16;5056852;28;20207;-62
2024/01/31 02:44:01;;;;;;;2.25;0.90;;;8.60;99.90;;;8.60;94.51;102253.06;5052426;28;20286;-63
2024/01/31 02:46:36;;;;;;;1.90;1.33;;;8.50;99.90;;;8.53;95.19;102246.59;5053872;28;20226;-63
2024/01/31 02:49:11;;;;;;;2.08;1.05;;;8.50;99.90;;;8.55;95.01;102253.53;5069880;28;20218;-63
2024/01/31 02:51:47;;;;;;;1.10;0.88;;;8.50;99.90;;;8.52;95.33;102253.00;5055585;28;20673;-62
2024/01/31 02:54:26;;;;;;;1.55;1.35;;;8.50;99.90;;;8.51;95.66;102257.56;5072019;28;20196;-63
2024/01/31 02:57:00;;;;;;;1.70;1.10;;;8.40;99.90;;;8.45;96.22;102254.63;5065717;28;20223;-62
2024/01/31 02:59:36;;;;;;;1.25;0.88;;;8.40;99.90;;;8.43;95.93;102257.47;5063721;28;20291;-62
2024/01/31 03:02:21;;;;;;;1.20;0.93;;;8.40;99.90;;;8.33;96.65;102261.28;5064037;28;20200;-65
2024/01/31 03:04:59;;;;;;;0.90;0.73;;;8.30;99.90;;;8.31;96.64;102274.06;5060986;28;20191;-63
2024/01/31 03:07:40;;;;;;;1.40;0.85;;;8.20;99.90;;;8.27;96.72;102257.31;5047845;28;20230;-58
2024/01/31 03:10:21;;;;;;;1.75;0.80;;;8.20;99.90;;;8.28;96.81;102262.53;5054633;28;20195;-64
2024/01/31 03:12:58;;;;;;;1.17;1.05;;;8.20;99.90;;;8.32;96.65;102262.28;5063593;28;20669;-63
2024/01/31 03:16:02;;;;;;;1.23;0.80;;;8.20;99.90;;;8.23;96.83;102259.44;5054465;28;20210;-63
2024/01/31 03:18:37;;;;;;;1.02;0.73;;;8.20;99.90;;;8.25;96.75;102273.63;5071071;28;20218;-63
2024/01/31 03:21:11;;;;;;;1.70;0.77;;;8.20;99.90;;;8.34;96.20;102281.81;5071002;28;20198;-63
2024/01/31 03:23:47;;;;;;;0.98;0.70;;;8.20;99.90;;;8.29;96.07;102280.44;5059841;28;20192;-63
2024/01/31 03:26:26;;;;;;;0.90;0.50;;;8.20;99.90;;;8.24;96.52;102288.09;5076811;28;20713;-63
2024/01/31 03:29:07;;;;;;;2.08;0.93;;;8.20;99.90;;;8.22;96.49;102284.75;5054151;28;20221;-62
2024/01/31 03:31:42;;;;;;;1.15;0.73;;;8.20;99.90;;;8.27;96.24;102281.56;5057481;28;20223;-62
2024/01/31 03:34:21;;;;;;;0.80;0.40;;;8.20;99.90;;;8.27;96.16;102292.38;5076858;28;20199;-62
2024/01/31 03:36:58;;;;;;;1.42;0.70;;;8.20;99.90;;;8.14;96.77;102295.41;5057328;28;20362;-62
2024/01/31 03:39:35;;;;;;;0.90;0.60;;;8.10;99.90;;;8.16;96.98;102295.28;5054059;28;20665;-63
2024/01/31 03:42:14;;;;;;;1.00;0.60;;;8.10;99.90;;;8.07;97.56;102305.13;5066961;28;20233;-65
2024/01/31 03:44:50;;;;;;;1.35;1.15;;;8.00;99.90;;;8.09;97.52;102305.81;5070486;28;20204;-64
2024/01/31 03:47:28;;;;;;;1.55;1.00;;;8.00;99.90;;;8.11;97.47;102313.75;5068153;28;20215;-62
2024/01/31 03:50:06;;;;;;;1.75;1.48;;;8.00;99.90;;;8.01;97.97;102308.44;5064338;28;20267;-65
2024/01/31 03:52:40;;;;;;;1.70;0.93;;;8.00;99.90;;;7.95;98.55;102311.72;5076260;28;20203;-62
2024/01/31 03:55:17;;;;;;;1.00;0.70;;;7.90;99.90;;;7.88;99.58;102313.34;5059752;28;20294;-63
2024/01/31 03:58:01;;;;;;;1.10;0.50;;;7.80;99.90;;;7.81;99.94;102312.22;5054912;28;20281;-63
2024/01/31 04:00:39;;;;;;;1.02;0.73;;;7.80;99.90;;;7.72;100.00;102315.81;5058438;28;20209;-63
2024/01/31 04:03:20;;;;;;;1.10;0.70;;;7.70;99.90;;;7.73;100.00;102313.00;5077786;28;20196;-63
2024/01/31 04:05:55;;;;;;;0.80;0.50;;;7.70;99.90;;;7.76;100.00;102319.91;5076149;28;20204;-63
2024/01/31 04:08:34;;;;;;;0.90;0.50;;;7.70;99.90;;;7.75;100.00;102324.44;5069256;28;20243;-62
2024/01/31 04:11:11;;;;;;;1.00;0.80;;;7.70;99.90;;;7.67;100.00;102315.41;5074957;28;20222;-63
2024/01/31 04:13:54;;;;;;;1.00;0.80;;;7.60;99.90;;;7.71;100.00;102323.06;5063641;28;20188;-61
2024/01/31 04:16:34;;;;;;;0.80;0.50;;;7.70;99.90;;;7.61;100.00;102332.16;5058418;28;20206;-63
2024/01/31 04:19:13;;;;;;;1.00;0.77;;;7.60;99.90;;;7.65;100.00;102333.59;5071043;28;20208;-61
2024/01/31 04:21:49;;;;;;;0.90;0.60;;;7.60;99.90;;;7.63;100.00;102333.72;5061728;28;20202;-63
2024/01/31 04:24:25;;;;;;;0.95;0.65;;;7.50;99.90;;;7.64;100.00;102334.59;5069539;28;20198;-61
2024/01/31 04:27:05;;;;;;;0.80;0.52;;;7.60;99.90;;;7.58;100.00;102337.88;5051463;28;20207;-62
2024/01/31 04:29:46;;;;;;;6.65;1.40;;;7.50;99.90;;;7.61;100.00;102337.56;5080631;28;20223;-63
2024/01/31 04:32:25;;;;;;;1.08;0.90;;;7.60;99.90;;;7.62;100.00;102350.03;5079721;28;20295;-64
2024/01/31 04:35:07;;;;;;;1.00;0.80;;;7.60;99.90;;;7.55;100.00;102351.63;5081349;28;20191;-63
2024/01/31 04:37:48;;;;;;;0.80;0.50;;;7.50;99.90;;;7.22;100.00;102353.84;5057561;28;20715;-59
2024/01/31 04:40:25;;;;;;;1.05;0.65;;;7.30;99.90;;;6.99;100.00;102347.94;5076964;28;20252;-61
2024/01/31 04:43:02;;;;;;;1.27;0.55;;;7.10;1.00;;;6.90;100.00;102346.09;5075409;28;20794;-61
2024/01/31 04:45:41;;;;;;;0.80;0.50;;;7.00;1.00;;;6.73;100.00;102351.38;5055972;28;20203;-62
2024/01/31 04:48:19;;;;;;;1.88;0.85;;;6.80;1.00;;;6.61;100.00;102347.09;5054591;28;20219;-61
2024/01/31 04:50:57;;;;;;;0.80;0.40;;;6.70;1.00;;;6.63;100.00;102340.59;5062562;28;20203;-62
2024/01/31 04:53:35;;;;;;;0.80;0.50;;;6.60;99.90;;;6.60;100.00;102348.94;5070941;28;20203;-65
2024/01/31 04:56:14;;;;;;;0.80;0.50;;;6.60;1.00;;;6.45;100.00;102355.72;5064237;28;20195;-63
2024/01/31 04:58:52;;;;;;;1.00;0.60;;;6.50;99.90;;;6.48;100.00;102353.63;5074381;28;20207;-63
2024/01/31 05:01:30;;;;;;;0.80;0.50;;;6.50;99.90;;;6.50;100.00;102358.84;5071829;28;20195;-64
2024/01/31 05:04:06;;;;;;;0.80;0.50;;;6.50;1.00;;;6.50;100.00;102351.63;5059624;28;20600;-65
2024/01/31 05:06:49;;;;;;;0.80;0.50;;;6.50;9.20;;;6.41;100.00;102363.22;5064151;28;20294;-62
2024/01/31 05:09:29;;;;;;;1.60;0.93;;;6.40;99.90;;;6.40;100.00;102364.19;5072970;28;20564;-64
2024/01/31 05:12:11;;;;;;;0.80;0.40;;;6.40;99.90;;;6.49;100.00;102365.19;5057043;28;20205;-63
2024/01/31 05:14:53;;;;;;;0.90;0.50;;;6.40;99.90;;;6.45;100.00;102364.63;5068518;28;20293;-64
2024/01/31 05:17:33;;;;;;;0.80;0.50;;;6.50;99.90;;;6.37;100.00;102367.19;5067125;28;20226;-63
2024/01/31 05:20:10;;;;;;;1.08;0.70;;;6.40;99.90;;;6.37;100.00;102372.56;5072849;28;20201;-62
2024/01/31 05:22:53;;;;;;;0.90;0.80;;;6.40;99.90;;;6.23;100.00;102380.16;5068494;28;20191;-64
2024/01/31 05:25:39;;;;;;;0.80;0.40;;;6.30;99.90;;;6.06;100.00;102376.28;5077137;28;20195;-64
2024/01/31 05:28:22;;;;;;;0.80;0.40;;;6.10;99.90;;;5.93;100.00;102389.13;5074452;28;20210;-62
2024/01/31 05:30:59;;;;;;;0.80;0.50;;;6.00;99.90;;;5.92;100.00;102385.59;5076334;28;20200;-63
2024/01/31 05:33:46;;;;;;;0.80;0.50;;;5.90;99.90;;;5.84;100.00;102389.91;5069623;28;20202;-63
2024/01/31 05:36:25;;;;;;;0.80;0.40;;;5.90;1.00;;;5.79;100.00;102392.16;5086749;28;20277;-63
2024/01/31 05:39:05;;;;;;;0.80;0.52;;;5.80;1.00;;;5.78;100.00;102387.75;5060357;28;20217;-63
2024/01/31 05:41:49;;;;;;;0.80;0.50;;;5.80;99.90;;;5.82;100.00;102391.88;5075911;28;20745;-64
2024/01/31 05:44:35;;;;;;;1.00;0.70;;;5.80;85.60;;;5.88;100.00;102402.13;5074592;28;20602;-62
2024/01/31 05:47:14;;;;;;;0.80;0.50;;;5.80;1.00;;;5.84;100.00;102398.81;5081188;28;20593;-63
2024/01/31 05:49:54;;;;;;;0.80;0.50;;;5.80;99.90;;;5.78;100.00;102404.72;5056222;28;20206;-62
2024/01/31 05:52:35;;;;;;;1.35;0.70;;;5.70;1.00;;;5.86;100.00;102406.72;5065356;28;20261;-62
2024/01/31 05:55:17;;;;;;;0.80;0.50;;;5.80;1.00;;;5.87;100.00;102401.25;5072830;28;20706;-65
2024/01/31 05:58:00;;;;;;;8.15;0.80;;;5.80;1.00;;;5.85;100.00;102415.78;5074076;28;20211;-61
2024/01/31 06:00:44;;;;;;;0.80;0.50;;;5.80;1.00;;;5.82;100.00;102424.09;5074019;28;20191;-64
2024/01/31 06:03:28;;;;;;;0.80;0.60;;;5.80;1.00;;;5.86;100.00;102425.53;5058192;28;20197;-63
2024/01/31 06:06:13;;;;;;;0.80;0.50;;;5.80;1.00;;;5.84;100.00;102422.16;5056099;28;20193;-63
2024/01/31 06:08:50;;;;;;;0.90;0.60;;;5.80;1.00;;;5.84;100.00;102422.16;5074335;28;20217;-64
2024/01/31 06:11:30;;;;;;;0.80;0.50;;;5.80;1.00;;;5.84;100.00;102431.06;5052862;28;20559;-62
2024/01/31 06:14:10;;;;;;;0.80;0.50;;;5.80;1.00;;;5.83;100.00;102441.94;5075084;28;20559;-63
2024/01/31 06:16:50;;;;;;;0.90;0.80;;;5.80;1.00;;;5.77;100.00;102446.00;5070391;28;20224;-63
2024/01/31 06:19:30;;;;;;;0.80;0.55;;;5.80;1.00;;;5.74;100.00;102442.75;5057877;28;20201;-63
2024/01/31 06:22:11;;;;;;;0.80;0.50;;;5.70;1.00;;;5.83;100.00;102448.16;5073392;28;20195;-65
2024/01/31 06:24:53;;;;;;;0.80;0.50;;;5.80;46.10;;;5.83;100.00;102458.91;5073970;28;20198;-63
2024/01/31 06:27:35;;;;;;;0.80;0.50;;;5.80;5.10;;;5.79;100.00;102467.38;5049362;28;20213;-64
2024/01/31 06:30:19;;;;;;;0.90;0.60;;;5.80;1.00;;;5.79;100.00;102454.78;5062292;28;20244;-63
2024/01/31 06:33:06;;;;;;;0.80;0.50;;;5.70;1.00;;;5.93;100.00;102464.38;5062028;28;20621;-61
2024/01/31 06:36:18;;;;;;;0.80;0.50;;;5.80;1.00;;;5.88;100.00;102483.56;5072082;28;20194;-64
2024/01/31 06:39:03;;;;;;;0.80;0.50;;;5.80;1.00;;;5.82;100.00;102472.47;5070352;28;20218;-61
2024/01/31 06:41:45;;;;;;;0.93;0.82;;;5.80;1.00;;;5.95;100.00;102465.09;5050684;28;20206;-65
2024/01/31 06:44:23;;;;;;;0.80;0.50;;;5.80;1.00;;;5.92;100.00;102471.56;5072146;28;20569;-65
2024/01/31 06:47:03;;;;;;;0.80;0.50;;;5.90;1.00;;;6.02;100.00;102477.00;5053988;28;20286;-61
2024/01/31 06:49:42;;;;;;;0.80;0.50;;;5.90;1.00;;;5.95;100.00;102489.28;5049749;28;20202;-63
2024/01/31 06:52:26;;;;;;;0.80;0.55;;;5.90;1.00;;;5.94;100.00;102490.25;5065858;28;20229;-64
2024/01/31 06:55:13;;;;;;;0.80;0.50;;;5.90;1.00;;;5.89;100.00;102485.28;5072459;28;20196;-63
2024/01/31 06:57:58;;;;;;;1.00;0.50;;;5.90;1.00;;;5.97;100.00;102485.47;5051858;28;20219;-60
2024/01/31 07:00:36;;;;;;;0.93;0.82;;;5.90;1.00;;;5.92;100.00;102484.16;5064428;28;20201;-63
2024/01/31 07:03:14;;;;;;;0.90;0.60;;;5.90;1.00;;;5.82;100.00;102488.59;5075992;28;20201;-63
2024/01/31 07:05:55;;;;;;;0.80;0.40;;;5.80;1.00;;;5.87;100.00;102494.44;5072043;28;20216;-62
2024/01/31 07:08:40;;;;;;;0.80;0.50;;;5.80;99.90;;;5.82;100.00;102496.66;5074639;28;20242;-62
2024/01/31 07:11:41;;;;;;;0.90;0.77;;;5.80;99.90;;;5.74;100.00;102502.69;5067094;28;20253;-63
2024/01/31 07:14:26;;;;;;;0.80;0.40;;;5.70;99.90;;;5.78;100.00;102500.59;5056306;28;20229;-64
2024/01/31 07:17:34;;;;;;;0.80;0.50;;;5.80;99.90;;;5.80;100.00;102506.69;5072143;28;20223;-64
2024/01/31 07:20:13;;;;;;;1.17;0.60;;;5.70;99.90;;;5.80;100.00;102507.53;5056245;28;20200;-65
2024/01/31 07:22:55;;;;;;;0.80;0.50;;;5.70;99.90;;;5.69;100.00;102527.25;5049651;28;20194;-65
2024/01/31 07:25:34;;;;;;;0.80;0.50;;;5.70;99.90;;;5.64;100.00;102534.00;5065093;28;20285;-62
2024/01/31 07:28:16;;;;;;;0.80;0.50;;;5.70;99.90;;;5.48;100.00;102529.06;5076436;28;20297;-64
2024/01/31 07:31:05;;;;;;;1.00;0.70;;;5.50;99.90;;;5.37;100.00;102526.47;5056385;28;20194;-63
2024/01/31 07:33:40;;;;;;;0.80;0.60;;;;;;;5.31;100.00;102543.06;5062127;28;20287;-64
2024/01/31 07:36:23;;;;;;;1.00;0.70;;;5.40;99.90;;;5.31;100.00;102537.72;5065616;28;20195;-64
2024/01/31 07:39:03;;;;;;;0.82;0.63;;;5.30;1.00;;;5.38;100.00;102546.06;5066226;28;20215;-62
2024/01/31 07:41:40;;;;;;;0.80;0.40;;;5.30;1.00;;;5.31;100.00;102542.22;5065931;28;20215;-62
2024/01/31 07:44:32;;;;;;;0.80;0.50;;;5.30;99.90;;;5.46;100.00;102551.69;5070917;28;20201;-59
2024/01/31 07:47:16;;;;;;;1.10;0.82;;;5.40;99.90;;;5.46;100.00;102547.16;5052011;28;20226;-63
2024/01/31 07:50:02;;;;;;;1.65;0.70;;;5.40;99.90;;;5.50;100.00;102553.97;5041532;28;20244;-63
2024/01/31 07:52:41;;;;;;;2.25;1.25;;;5.40;99.90;;;5.69;100.00;102562.19;5064832;28;20214;-63
2024/01/31 07:55:26;;;;;;;0.80;0.50;;;5.60;99.90;;;5.58;100.00;102556.84;5057439;28;20202;-63
2024/01/31 07:58:05;;;;;;;0.80;0.50;;;5.60;99.90;;;5.56;100.00;102561.53;5069868;28;20217;-62
2024/01/31 08:00:45;;;;;;;1.35;0.55;;;5.50;99.90;;;5.70;100.00;102565.72;5054494;28;20194;-62
2024/01/31 08:03:30;;;;;;;1.55;1.15;;;5.60;99.90;;;5.68;99.21;102567.69;5056466;28;20230;-63
2024/01/31 08:06:07;;;;;;;0.90;0.70;;;5.60;99.90;;;5.66;100.00;102575.03;5069572;28;20280;-63
2024/01/31 08:08:58;;;;;;;0.80;0.50;;;5.60;99.90;;;5.52;100.00;102576.16;5067970;28;20240;-62
2024/01/31 08:11:58;;;;;;;0.80;0.40;;;5.50;99.90;;;5.45;100.00;102575.00;5056189;28;20262;-64
2024/01/31 08:14:38;;;;;;;0.80;0.50;;;5.40;99.90;;;5.42;100.00;102577.91;5054681;28;20678;-64
2024/01/31 08:17:29;;;;;;;0.80;0.50;;;5.40;99.90;;;5.50;100.00;102585.34;5068657;28;20222;-64
2024/01/31 08:20:09;;;;;;;0.80;0.50;;;5.50;99.90;;;5.37;100.00;102590.03;5070570;28;20229;-62
2024/01/31 08:22:52;;;;;;;0.80;0.50;;;5.40;99.90;;;5.52;100.00;102586.91;5072057;28;20186;-65
2024/01/31 08:25:32;;;;;;;0.80;0.50;;;5.40;99.90;;;5.53;100.00;102585.06;5064933;28;20192;-62
2024/01/31 08:28:13;;;;;;;0.80;0.50;;;5.50;99.90;;;5.57;100.00;102587.38;5070492;28;20309;-63
2024/01/31 08:30:51;;;;;;;1.00;0.68;;;5.50;99.90;;;5.64;100.00;102604.69;5054426;28;20688;-64
2024/01/31 08:33:32;;;;;;;0.80;0.43;;;5.50;99.90;;;5.36;100.00;102589.19;5071861;28;20203;-64
2024/01/31 08:36:12;;;;;;;0.80;0.50;;;5.40;99.90;;;5.24;100.00;102600.91;5054518;28;20198;-64
2024/01/31 08:38:51;;;;;;;0.80;0.50;;;5.30;99.90;;;4.98;100.00;102600.38;5050196;28;20797;-63
2024/01/31 08:41:31;;;;;;;0.85;0.60;;;5.20;1.00;;;4.71;100.00;102600.78;5075215;28;20548;-63
2024/01/31 08:44:09;;;;;;;10.27;0.65;;;4.90;1.00;;;4.69;100.00;102600.06;5074236;28;20778;-61
2024/01/31 08:46:48;;;;;;;0.80;0.50;;;4.80;1.00;;;4.62;100.00;102608.69;5057107;28;20191;-63
2024/01/31 08:49:51;;;;;;;0.80;0.50;;;4.70;1.00;;;4.65;100.00;102613.81;5075839;28;20295;-63
2024/01/31 08:52:29;;;;;;;0.80;0.50;;;4.70;99.90;;;4.64;100.00;102612.13;5058145;28;20648;-62
2024/01/31 08:55:12;;;;;;;0.80;0.40;;;4.70;25.10;;;4.86;100.00;102616.59;5075629;28;20200;-60
2024/01/31 08:57:54;;;;;;;0.80;0.50;;;4.80;35.80;;;4.80;100.00;102616.13;5048193;28;20257;-62
2024/01/31 09:00:34;;;;;;;0.80;0.50;;;4.80;1.00;;;4.93;100.00;102615.16;5059680;28;20195;-63
2024/01/31 09:03:11;;;;;;;0.80;0.55;;;4.80;1.00;;;5.05;100.00;102619.50;5074255;28;20192;-62
2024/01/31 09:05:53;;;;;;;0.80;0.50;;;4.90;1.00;;;5.19;100.00;102629.97;5060578;28;20194;-62
2024/01/31 09:08:34;;;;;;;0.80;0.50;;;5.10;1.00;;;5.34;100.00;102622.50;5072088;28;20212;-63
2024/01/31 09:11:11;;;;;;;0.80;0.50;;;5.20;1.00;;;5.59;100.00;102625.72;5061895;28;20217;-62
2024/01/31 09:13:51;;;;;;;0.80;0.50;;;5.40;1.00;;;5.77;100.00;102630.50;5075066;28;20191;-62
2024/01/31 09:16:35;;;;;;;1.00;0.50;;;5.60;99.90;;;5.77;100.00;102627.81;5044920;28;20576;-62
2024/01/31 09:19:11;;;;;;;0.80;0.50;;;5.60;99.90;;;5.73;100.00;102631.75;5070148;28;20268;-63
2024/01/31 09:21:55;;;;;;;0.80;0.50;;;5.60;99.90;;;5.55;100.00;102624.28;5063259;28;20193;-66
2024/01/31 09:24:36;;;;;;;0.80;0.40;;;5.60;99.90;;;5.54;100.00;102624.38;5056092;28;20681;-64
2024/01/31 09:27:19;;;;;;;0.80;0.50;;;5.50;99.90;;;5.36;100.00;102624.09;5072402;28;20221;-62
2024/01/31 09:30:08;;;;;;;0.90;0.50;;;5.50;99.90;;;5.40;100.00;102622.84;5074139;28;20605;-63
2024/01/31 09:32:46;;;;;;;0.80;0.50;;;5.40;99.90;;;5.29;100.00;102628.25;5063273;28;20285;-66
2024/01/31 09:35:28;;;;;;;3.58;1.15;;;5.40;99.90;;;5.19;100.00;102613.88;5040194;28;20269;-64
2024/01/31 09:38:15;;;;;;;0.80;0.50;;;5.30;99.90;;;5.08;100.00;102613.91;5054701;28;20776;-66
2024/01/31 09:40:53;;;;;;;0.90;0.70;;;5.20;99.90;;;5.15;100.00;102621.31;5067566;28;20277;-64
2024/01/31 09:43:32;;;;;;;1.33;1.23;;;5.20;99.90;;;5.18;100.00;102618.38;5055811;28;20189;-63
2024/01/31 09:46:11;;;;;;;0.80;0.60;;;5.20;99.90;;;5.24;99.96;102619.72;5056240;28;20539;-63
2024/01/31 09:48:51;;;;;;;0.80;0.40;;;5.20;99.90;;;5.21;100.00;102628.03;5067240;28;20224;-63
2024/01/31 09:51:29;;;;;;;0.80;0.50;;;5.20;99.90;;;5.40;98.44;102617.47;5071694;28;20215;-63
2024/01/31 09:54:15;;;;;;;1.20;0.60;;;5.40;99.90;;;5.60;97.65;102623.88;5073369;28;20247;-60
2024/01/31 09:56:53;;;;;;;0.80;0.50;;;5.50;99.90;;;5.68;95.38;102616.88;5069055;28;20221;-64
2024/01/31 09:59:32;;;;;;;0.80;0.60;;;5.60;99.90;;;6.37;93.77;102621.78;5056095;28;20695;-63
2024/01/31 10:02:15;;;;;;;1.08;0.80;;;6.00;99.90;;;6.52;91.45;102607.00;5060565;28;20199;-69
2024/01/31 10:04:55;;;;;;;0.90;0.60;;;6.20;99.90;;;6.71;89.47;102606.25;5073763;28;20190;-64
2024/01/31 10:07:49;;;;;;;0.90;0.60;;;6.40;99.90;;;6.60;88.13;102596.41;5062030;28;20268;-62
2024/01/31 10:10:34;;;;;;;1.35;1.05;;;6.40;99.90;;;6.44;87.17;102593.34;5059388;28;20207;-61
2024/01/31 10:13:11;;;;;;;1.85;0.70;;;6.40;99.90;;;6.52;88.81;102588.19;5054579;28;20283;-63
2024/01/31 10:15:47;;;;;;;0.80;0.50;;;6.40;99.90;;;6.51;89.16;102595.41;5052116;28;20194;-63
2024/01/31 10:18:27;;;;;;;1.05;0.60;;;6.40;99.90;;;6.41;90.26;102596.34;5057700;28;20253;-64
2024/01/31 10:21:16;;;;;;;1.17;0.60;;;6.30;99.90;;;6.21;90.19;102598.06;5058993;28;20586;-66
2024/01/31 10:24:02;;;;;;;0.80;0.50;;;6.20;99.90;;;6.31;90.42;102609.72;5073354;28;20218;-62
2024/01/31 10:26:41;;;;;;;0.80;0.50;;;6.20;99.90;;;6.51;89.63;102616.91;5074046;28;20238;-63
2024/01/31 10:29:41;;;;;;;0.80;0.50;;;6.40;99.90;;;6.41;89.50;102616.00;5078173;28;20249;-64
2024/01/31 10:32:24;;;;;;;0.80;0.60;;;6.40;99.90;;;6.27;89.98;102613.66;5071027;28;20207;-60
2024/01/31 10:35:14;;;;;;;0.80;0.50;;;6.30;99.90;;;6.35;90.84;102615.69;5064691;28;20223;-63
2024/01/31 10:38:00;;;;;;;0.80;0.50;;;6.30;99.90;;;6.25;90.68;102607.56;5063463;28;20224;-65
2024/01/31 10:40:43;;;;;;;0.95;0.85;;;6.20;99.90;;;6.46;89.93;102613.78;5071229;28;20196;-59
2024/01/31 10:43:32;;;;;;;0.80;0.40;;;6.30;99.90;;;6.55;89.67;102601.34;5053312;28;20190;-60
2024/01/31 10:46:14;;;;;;;0.80;0.50;;;6.40;99.90;;;6.81;88.11;102602.59;5074986;28;20293;-64
2024/01/31 10:48:56;;;;;;;0.80;0.50;;;6.60;99.90;;;6.35;87.93;102604.91;5054039;28;20214;-64
2024/01/31 10:51:42;;;;;;;1.30;1.20;;;6.40;99.90;;;6.19;90.15;102628.75;5076413;28;20227;-59
2024/01/31 10:57:57;;;;;;;2.78;0.98;;;6.00;99.90;;;5.58;88.64;102631.22;5056068;28;20222;-63
2024/01/31 11:00:56;;;;;;;0.90;0.60;;;5.70;99.90;;;5.34;90.35;102611.75;5079486;28;20203;-63
2024/01/31 11:03:40;;;;;;;0.80;0.50;;;5.50;99.90;;;5.35;91.21;102608.94;5055143;28;20193;-63
2024/01/31 11:06:27;;;;;;;1.00;0.70;;;5.40;99.90;;;5.59;90.98;102604.22;5072287;28;20217;-63
2024/01/31 11:09:05;;;;;;;0.80;0.50;;;5.50;99.90;;;5.75;90.53;102597.56;5055942;28;20221;-62
2024/01/31 11:11:47;;;;;;;0.80;0.50;;;5.60;99.90;;;5.89;92.11;102586.53;5072138;28;20203;-65
2024/01/31 11:14:38;;;;;;;1.50;1.33;;;5.70;99.90;;;5.79;90.42;102574.84;5062635;28;20253;-64
2024/01/31 11:17:33;;;;;;;1.00;0.68;;;5.70;99.90;;;5.97;89.57;102582.19;5081498;28;20222;-63
2024/01/31 11:20:18;;;;;;;0.80;0.60;;;5.80;99.90;;;6.06;88.97;102583.25;5071928;28;20678;-65
2024/01/31 11:22:52;;;;;;;0.80;0.50;;;5.90;99.90;;;6.09;89.33;102596.44;5072594;28;20580;-66
2024/01/31 11:25:35;;;;;;;0.90;0.70;;;5.90;99.90;;;6.11;89.81;102594.47;5054250;28;20210;-64